Time;durP1;ratioP1;P1;durP2;ratioP2;P2;SDS_P1;SDS_P2;PMS_P1;PMS_P2;Temp;Humidity;BMP_temperature;BMP_pressure;BME280_temperature;BME280_humidity;BME280_pressure;Samples;Min_cycle;Max_cycle;Signal;HPM_P1;HPM_P2
2022/06/21 00:01:25;;;;;;;5.10;4.60;;;;;;;23.07;63.87;98985.31;5013396;28;20223;-71
2022/06/21 00:03:54;;;;;;;4.37;3.97;;;;;;;23.08;62.55;98992.34;5012565;28;20198;-71
2022/06/21 00:06:24;;;;;;;5.80;3.63;;;;;;;22.91;62.03;98985.81;5012954;28;20195;-70
2022/06/21 00:08:51;;;;;;;4.40;3.70;;;;;;;22.81;62.39;98991.31;5011320;28;20245;-71
2022/06/21 00:11:32;;;;;;;5.47;3.30;;;;;;;22.68;63.93;98998.22;5012948;28;20269;-71
2022/06/21 00:13:59;;;;;;;4.20;3.57;;;;;;;22.65;62.79;99004.22;5012563;28;20230;-71
2022/06/21 00:16:29;;;;;;;4.37;3.00;;;;;;;22.67;63.94;99006.63;5011692;28;20201;-71
2022/06/21 00:18:57;;;;;;;5.07;3.70;;;;;;;22.69;63.32;99005.25;5013441;28;20190;-71
2022/06/21 00:21:26;;;;;;;4.77;3.77;;;;;;;22.63;63.71;99002.88;5011808;28;20223;-71
2022/06/21 00:23:55;;;;;;;4.27;3.67;;;;;;;22.58;64.69;99002.94;5012890;28;20194;-71
2022/06/21 00:26:24;;;;;;;4.03;3.70;;;;;;;22.65;64.37;98996.09;5012248;28;20198;-72
2022/06/21 00:28:51;;;;;;;3.90;3.60;;;;;;;22.77;64.04;99001.09;5012182;28;20198;-71
2022/06/21 00:31:21;;;;;;;5.13;3.80;;;;;;;22.87;63.57;98996.38;5012375;28;20253;-71
2022/06/21 00:33:48;;;;;;;5.57;4.27;;;;;;;22.79;63.82;99007.84;5012086;28;20551;-71
2022/06/21 00:36:23;;;;;;;7.10;4.57;;;;;;;22.73;64.23;99003.59;5013484;28;20194;-71
2022/06/21 00:38:51;;;;;;;4.87;4.33;;;;;;;22.69;64.85;98999.84;5012536;28;20592;-71
2022/06/21 00:41:21;;;;;;;6.20;4.17;;;;;;;22.69;64.61;98993.59;5012565;28;20227;-71
2022/06/21 00:43:52;;;;;;;5.77;4.10;;;;;;;22.71;64.59;98986.81;5012241;28;20230;-71
2022/06/21 00:46:30;;;;;;;5.43;3.93;;;;;;;22.61;65.73;98984.22;5013309;28;20639;-71
2022/06/21 00:48:57;;;;;;;5.73;3.70;;;;;;;22.49;66.72;98972.97;5012127;28;20187;-70
2022/06/21 00:51:32;;;;;;;4.40;4.03;;;;;;;22.28;66.17;98970.69;5011811;28;20202;-71
2022/06/21 00:54:06;;;;;;;6.27;4.27;;;;;;;22.20;66.57;98964.00;5011630;28;20186;-71
2022/06/21 00:56:37;;;;;;;4.57;4.10;;;;;;;22.08;67.20;98970.84;5011821;28;20655;-71
2022/06/21 00:59:19;;;;;;;5.07;4.30;;;;;;;21.96;67.78;98971.22;5012462;28;20190;-71
2022/06/21 01:01:47;;;;;;;4.40;4.00;;;;;;;21.72;68.66;98967.59;5012247;28;20230;-72
2022/06/21 01:04:27;;;;;;;4.50;4.10;;;;;;;21.54;68.97;98975.53;5012009;28;20210;-72
2022/06/21 01:06:59;;;;;;;5.70;3.83;;;;;;;21.32;69.71;98961.59;5012994;28;20252;-72
2022/06/21 01:09:31;;;;;;;3.57;3.37;;;;;;;21.17;69.86;98954.38;5015276;28;20182;-72
2022/06/21 01:12:02;;;;;;;6.57;3.80;;;;;;;21.24;69.89;98938.69;5016156;28;20198;-72
2022/06/21 01:14:31;;;;;;;3.87;3.57;;;;;;;21.29;70.44;98946.75;5015178;28;20222;-72
2022/06/21 01:16:58;;;;;;;4.50;4.10;;;;;;;21.21;71.61;98955.44;5014591;28;20644;-72
2022/06/21 01:19:36;;;;;;;4.00;3.53;;;;;;;21.31;73.09;98949.97;5015172;28;20198;-71
2022/06/21 01:22:15;;;;;;;5.43;4.83;;;;;;;21.18;73.62;98947.06;5014742;28;20273;-71
2022/06/21 01:24:54;;;;;;;4.60;4.33;;;;;;;21.26;74.31;98952.72;5015494;28;20182;-71
2022/06/21 01:27:22;;;;;;;4.57;3.70;;;;;;;21.39;74.44;98957.50;5014961;28;20248;-71
2022/06/21 01:29:51;;;;;;;5.20;4.37;;;;;;;21.76;72.52;98967.88;5015568;28;20197;-71
2022/06/21 01:32:18;;;;;;;4.90;4.57;;;;;;;21.91;72.62;98963.16;5015396;28;20202;-71
2022/06/21 01:34:45;;;;;;;5.10;4.70;;;;;;;21.92;71.70;98966.69;5014395;28;20244;-71
2022/06/21 01:37:18;;;;;;;6.07;4.47;;;;;;;21.95;72.02;98966.91;5014718;28;20245;-71
2022/06/21 01:39:53;;;;;;;4.27;4.07;;;;;;;22.01;71.74;98957.66;5014812;28;20573;-72
2022/06/21 01:42:26;;;;;;;4.33;4.03;;;;;;;22.04;71.48;98959.81;5014537;28;20296;-71
2022/06/21 01:44:57;;;;;;;4.30;4.10;;;;;;;22.04;71.79;98953.56;5014121;28;20183;-71
2022/06/21 01:47:30;;;;;;;6.37;4.50;;;;;;;22.26;70.63;98957.44;5015486;28;20190;-71
2022/06/21 01:50:01;;;;;;;4.60;4.23;;;;;;;22.44;69.24;98953.22;5014447;28;20214;-72
2022/06/21 01:52:30;;;;;;;4.80;4.50;;;;;;;22.48;69.22;98936.16;5013845;28;20194;-72
2022/06/21 01:55:01;;;;;;;3.97;3.77;;;;;;;22.57;69.06;98947.16;5015359;28;20198;-72
2022/06/21 01:57:31;;;;;;;3.97;3.67;;;;;;;22.61;69.07;98949.00;5014629;28;20187;-72
2022/06/21 02:00:03;;;;;;;3.93;3.63;;;;;;;22.60;68.71;98939.28;5014377;28;20736;-71
2022/06/21 02:02:34;;;;;;;4.40;4.00;;;;;;;22.60;67.71;98936.56;5014124;28;20246;-71
2022/06/21 02:05:05;;;;;;;4.57;4.03;;;;;;;22.52;68.10;98934.50;5014578;28;20190;-71
2022/06/21 02:07:36;;;;;;;5.70;3.80;;;;;;;22.42;67.92;98939.97;5013701;28;20191;-72
2022/06/21 02:10:12;;;;;;;4.97;4.07;;;;;;;22.55;66.71;98944.75;5013199;28;20193;-72
2022/06/21 02:12:45;;;;;;;4.47;4.27;;;;;;;22.62;66.63;98934.38;5014519;28;20671;-72
2022/06/21 02:15:22;;;;;;;3.80;3.57;;;;;;;22.74;65.82;98945.63;5012787;28;20655;-72
2022/06/21 02:17:49;;;;;;;5.27;3.50;;;;;;;22.72;65.89;98945.13;5012440;28;20242;-72
2022/06/21 02:20:20;;;;;;;3.30;3.20;;;;;;;22.82;65.98;98936.06;5013543;28;20187;-72
2022/06/21 02:22:47;;;;;;;3.63;3.43;;;;;;;22.88;64.06;98946.56;5013328;28;20273;-72
2022/06/21 02:25:16;;;;;;;3.30;3.20;;;;;;;22.99;64.46;98947.25;5014101;28;20199;-73
2022/06/21 02:27:45;;;;;;;4.53;3.97;;;;;;;23.01;64.00;98948.56;4994074;28;20672;-71
2022/06/21 02:30:17;;;;;;;3.80;3.43;;;;;;;23.01;64.33;98950.44;4994761;28;20201;-72
2022/06/21 02:32:44;;;;;;;4.00;3.30;;;;;;;22.97;64.24;98952.94;4994090;28;20194;-72
2022/06/21 02:35:19;;;;;;;3.67;3.37;;;;;;;22.95;63.41;98960.53;4994726;28;20255;-71
2022/06/21 02:37:48;;;;;;;4.33;3.93;;;;;;;22.99;62.30;98956.16;4994164;28;20702;-70
2022/06/21 02:40:20;;;;;;;7.23;3.67;;;;;;;23.05;61.70;98965.84;4994626;28;20203;-71
2022/06/21 02:42:51;;;;;;;3.87;3.67;;;;;;;22.92;61.89;98966.56;4995083;28;20217;-71
2022/06/21 02:45:23;;;;;;;3.37;3.17;;;;;;;22.93;62.73;98973.59;4994059;28;20187;-71
2022/06/21 02:47:52;;;;;;;6.70;3.63;;;;;;;22.93;61.48;98968.16;4994726;28;20188;-71
2022/06/21 02:50:32;;;;;;;3.40;3.17;;;;;;;23.06;61.75;98966.66;4992428;28;20669;-72
2022/06/21 02:53:01;;;;;;;3.40;3.20;;;;;;;23.08;62.21;98959.03;4992855;28;20199;-72
2022/06/21 02:55:35;;;;;;;3.93;3.53;;;;;;;23.09;60.47;98966.88;4992530;28;20201;-72
2022/06/21 02:58:13;;;;;;;3.33;3.03;;;;;;;22.95;61.55;98963.25;4992552;28;20191;-72
2022/06/21 03:00:42;;;;;;;4.03;3.20;;;;;;;22.72;61.20;98950.53;4992312;28;20658;-72
2022/06/21 03:03:18;;;;;;;3.30;3.07;;;;;;;22.58;62.26;98957.69;4992623;28;20199;-71
2022/06/21 03:05:46;;;;;;;3.80;3.20;;;;;;;22.44;63.09;98959.44;4993006;28;20249;-72
2022/06/21 03:08:13;;;;;;;3.60;3.27;;;;;;;22.47;62.65;98958.91;4992732;28;20199;-72
2022/06/21 03:10:42;;;;;;;7.60;3.37;;;;;;;22.48;62.15;98957.00;4992606;28;20245;-72
2022/06/21 03:13:15;;;;;;;3.67;3.00;;;;;;;22.70;62.82;98954.63;4993672;28;20269;-72
2022/06/21 03:15:44;;;;;;;3.23;3.03;;;;;;;23.05;61.11;98960.44;4993034;28;20188;-72
2022/06/21 03:18:16;;;;;;;3.30;3.10;;;;;;;23.27;59.93;98962.63;4992834;28;20199;-72
2022/06/21 03:20:43;;;;;;;3.97;3.20;;;;;;;23.32;59.51;98966.06;4993032;28;20187;-72
2022/06/21 03:23:13;;;;;;;3.97;3.67;;;;;;;23.25;59.61;98953.97;4993075;28;20721;-71
2022/06/21 03:25:44;;;;;;;5.60;3.33;;;;;;;23.07;60.07;98958.22;4995263;28;20261;-71
2022/06/21 03:28:29;;;;;;;2.97;2.73;;;;;;;22.88;61.64;98954.69;5012962;28;20195;-70
2022/06/21 03:31:04;;;;;;;9.77;3.07;;;;;;;22.86;60.49;98951.44;5013852;28;20205;-70
2022/06/21 03:33:32;;;;;;;6.03;3.43;;;;;;;22.80;60.51;98941.78;5012264;28;20190;-72
2022/06/21 03:36:00;;;;;;;7.77;3.17;;;;;;;22.80;60.79;98935.53;5012936;28;20206;-71
2022/06/21 03:38:28;;;;;;;3.90;3.50;;;;;;;22.83;61.10;98929.56;5012624;28;20663;-71
2022/06/21 03:43:46;;;;;;;4.03;3.57;;;;;;;22.81;60.96;98921.72;5011074;28;20551;-70
2022/06/21 03:46:19;;;;;;;7.30;3.73;;;;;;;22.83;60.68;98919.50;5011182;28;20191;-72
2022/06/21 03:48:51;;;;;;;16.43;3.77;;;;;;;22.72;61.38;98901.78;5010901;28;20258;-72
2022/06/21 03:51:26;;;;;;;4.43;3.70;;;;;;;22.57;62.12;98899.25;5011209;28;20671;-72
2022/06/21 03:53:58;;;;;;;6.90;3.73;;;;;;;22.61;61.85;98905.69;5010994;28;20190;-72
2022/06/21 03:56:28;;;;;;;4.30;3.90;;;;;;;22.51;61.02;98900.41;5011641;28;20203;-72
2022/06/21 03:59:02;;;;;;;5.40;3.43;;;;;;;22.63;60.98;98900.00;5012267;28;20209;-72
2022/06/21 04:01:34;;;;;;;7.00;3.67;;;;;;;22.80;61.41;98893.03;5009486;28;20288;-72
2022/06/21 04:04:08;;;;;;;7.90;3.97;;;;;;;23.64;59.32;98908.44;5009639;28;20245;-71
2022/06/21 04:06:42;;;;;;;5.00;3.80;;;;;;;24.76;55.53;98926.03;5011004;28;20575;-71
2022/06/21 04:09:18;;;;;;;4.73;3.33;;;;;;;25.84;52.10;98911.47;5011406;28;20201;-72
2022/06/21 04:11:50;;;;;;;4.47;3.80;;;;;;;26.85;48.68;98924.06;5012570;28;20193;-72
2022/06/21 04:14:24;;;;;;;6.87;3.67;;;;;;;27.66;44.94;98915.94;5012055;28;20292;-71
2022/06/21 04:16:59;;;;;;;14.23;3.97;;;;;;;28.41;43.13;98934.50;5012680;28;20245;-72
2022/06/21 04:19:32;;;;;;;11.10;3.57;;;;;;;29.05;41.40;98927.84;5012965;28;20207;-72
2022/06/21 04:22:04;;;;;;;6.37;3.47;;;;;;;29.66;39.40;98929.91;5012106;28;20214;-72
2022/06/21 04:24:40;;;;;;;9.47;3.17;;;;;;;30.08;38.32;98934.19;5011671;28;20186;-72
2022/06/21 04:27:15;;;;;;;6.77;2.83;;;;;;;30.75;37.55;98926.44;5011123;28;20202;-72
2022/06/21 04:29:50;;;;;;;4.47;3.10;;;;;;;31.26;34.58;98928.50;5011826;28;20193;-71
2022/06/21 04:32:24;;;;;;;7.33;3.00;;;;;;;31.68;34.36;98923.50;5011250;28;20654;-71
2022/06/21 04:34:58;;;;;;;4.43;2.77;;;;;;;31.80;34.08;98923.50;5011588;28;20588;-71
2022/06/21 04:37:30;;;;;;;3.27;2.97;;;;;;;31.94;34.04;98924.72;5012158;28;20190;-71
2022/06/21 04:40:03;;;;;;;5.97;2.60;;;;;;;32.17;33.88;98927.69;5011432;28;20264;-72
2022/06/21 04:42:37;;;;;;;5.83;3.17;;;;;;;32.60;32.54;98923.00;5015111;28;20795;-71
2022/06/21 04:45:12;;;;;;;4.37;3.00;;;;;;;33.06;31.09;98921.41;5015235;28;20536;-70
2022/06/21 04:47:45;;;;;;;14.10;3.30;;;;;;;32.86;31.70;98914.22;5015838;28;20650;-70
2022/06/21 04:50:26;;;;;;;5.17;3.13;;;;;;;32.84;31.84;98903.59;5015399;28;20281;-70
2022/06/21 04:52:59;;;;;;;2.83;2.63;;;;;;;33.13;31.28;98896.78;5015360;28;20251;-70
2022/06/21 04:55:33;;;;;;;3.47;3.00;;;;;;;33.15;31.26;98902.72;5015070;28;20245;-70
2022/06/21 04:58:00;;;;;;;6.73;2.80;;;;;;;33.16;31.42;98898.84;5015646;28;20190;-70
2022/06/21 05:00:28;;;;;;;7.13;2.60;;;;;;;33.07;31.82;98906.50;5015122;28;20198;-71
2022/06/21 05:02:59;;;;;;;14.90;2.93;;;;;;;33.07;31.95;98912.78;5014560;28;20221;-69
2022/06/21 05:05:30;;;;;;;4.60;2.63;;;;;;;33.40;31.59;98917.09;5015406;28;20704;-70
2022/06/21 05:08:02;;;;;;;6.40;2.97;;;;;;;33.79;31.05;98924.22;5014982;28;20736;-70
2022/06/21 05:10:32;;;;;;;7.87;2.93;;;;;;;34.47;29.64;98922.50;5015358;28;20187;-71
2022/06/21 05:13:01;;;;;;;8.10;3.33;;;;;;;34.37;30.23;98917.59;5015467;28;20288;-70
2022/06/21 05:15:34;;;;;;;5.77;3.50;;;;;;;34.54;30.18;98925.41;5014730;28;20618;-69
2022/06/21 05:18:05;;;;;;;4.22;2.60;;;;;;;34.92;28.80;98925.28;5014829;28;20186;-70
2022/06/21 05:20:35;;;;;;;7.75;3.35;;;;;;;34.77;29.73;98917.88;5014559;28;20197;-70
2022/06/21 05:23:04;;;;;;;7.20;3.50;;;;;;;34.97;29.50;98920.25;5015473;28;20315;-70
2022/06/21 05:25:35;;;;;;;7.63;3.17;;;;;;;34.99;29.77;98909.63;5015342;28;20226;-71
2022/06/21 05:28:10;;;;;;;10.98;4.07;;;;;;;35.42;28.71;98916.59;4996092;28;20187;-70
2022/06/21 05:30:45;;;;;;;13.50;4.00;;;;;;;35.31;29.08;98916.44;4996336;28;20210;-70
2022/06/21 05:33:16;;;;;;;5.78;2.20;;;;;;;35.21;29.79;98910.75;5001183;28;20194;-75
2022/06/21 05:35:44;;;;;;;4.80;2.53;;;;;;;35.13;29.19;98914.56;5012733;28;20194;-76
2022/06/21 05:38:17;;;;;;;5.10;2.50;;;;;;;34.98;29.52;98919.06;4995588;28;20198;-75
2022/06/21 05:40:52;;;;;;;8.93;3.33;;;;;;;35.18;29.88;98911.47;5003038;28;20190;-76
2022/06/21 05:43:25;;;;;;;5.78;3.03;;;;;;;35.10;29.65;98920.81;5013721;28;20689;-75
2022/06/21 05:45:56;;;;;;;4.05;2.70;;;;;;;35.18;29.69;98919.75;5013304;28;20190;-76
2022/06/21 05:48:25;;;;;;;8.07;3.47;;;;;;;35.18;29.29;98905.97;5014235;28;20182;-76
2022/06/21 05:50:52;;;;;;;10.35;3.90;;;;;;;34.99;30.06;98914.34;4994128;28;20194;-75
2022/06/21 05:53:28;;;;;;;9.05;3.90;;;;;;;34.98;30.29;98912.78;4993876;28;20229;-77
2022/06/21 05:55:56;;;;;;;5.30;3.50;;;;;;;34.86;30.24;98912.97;4994400;28;20193;-75
2022/06/21 05:58:27;;;;;;;10.95;3.10;;;;;;;35.01;29.77;98901.78;4993321;28;20202;-75
2022/06/21 06:01:00;;;;;;;7.13;2.88;;;;;;;35.05;30.10;98901.81;4993320;28;20187;-74
2022/06/21 06:03:31;;;;;;;15.45;4.15;;;;;;;34.87;30.40;98896.00;4993256;28;20211;-75
2022/06/21 06:06:04;;;;;;;7.40;3.75;;;;;;;35.10;30.26;98898.72;4997913;28;20270;-74
2022/06/21 06:08:36;;;;;;;6.32;3.55;;;;;;;35.30;30.53;98887.25;5009374;28;20225;-78
2022/06/21 06:11:08;;;;;;;8.32;3.58;;;;;;;35.31;29.90;98883.31;5011326;28;20202;-78
2022/06/21 06:13:40;;;;;;;10.10;3.60;;;;;;;35.39;30.24;98885.00;5013032;28;20238;-73
2022/06/21 06:16:27;;;;;;;4.93;2.83;;;;;;;35.19;29.67;98886.25;5011934;28;20662;-73
2022/06/21 06:18:59;;;;;;;7.75;3.10;;;;;;;35.21;29.23;98883.94;5012814;28;20244;-73
2022/06/21 06:21:30;;;;;;;4.07;3.00;;;;;;;35.08;29.83;98884.50;5013793;28;20190;-76
2022/06/21 06:24:01;;;;;;;3.33;3.00;;;;;;;35.14;29.66;98889.34;5012530;28;20260;-76
2022/06/21 06:26:33;;;;;;;5.25;2.78;;;;;;;35.25;29.24;98882.00;5019748;28;20197;-78
2022/06/21 06:29:07;;;;;;;4.30;2.42;;;;;;;35.32;28.77;98884.88;5032669;28;20680;-77
2022/06/21 06:31:41;;;;;;;9.52;2.60;;;;;;;35.38;28.30;98877.88;5032585;28;20287;-74
2022/06/21 06:34:12;;;;;;;4.28;2.10;;;;;;;35.38;28.46;98872.34;5020106;28;20195;-75
2022/06/21 06:36:42;;;;;;;4.32;2.17;;;;;;;35.30;27.39;98886.44;4994278;28;20257;-76
2022/06/21 06:39:18;;;;;;;4.05;1.90;;;;;;;34.96;28.31;98890.25;4993057;28;20198;-72
2022/06/21 06:41:56;;;;;;;5.63;2.00;;;;;;;34.91;27.65;98891.34;4994169;28;20796;-72
2022/06/21 06:44:26;;;;;;;10.13;2.80;;;;;;;35.03;27.89;98884.84;5013102;28;20720;-72
2022/06/21 06:46:58;;;;;;;2.50;1.85;;;;;;;35.03;27.21;98888.38;5012886;28;20186;-74
2022/06/21 06:49:30;;;;;;;5.50;1.90;;;;;;;35.11;27.43;98887.31;5013266;28;20185;-71
2022/06/21 06:52:03;;;;;;;6.47;2.15;;;;;;;34.95;27.83;98891.41;5013160;28;20185;-71
2022/06/21 06:54:41;;;;;;;7.47;2.00;;;;;;;34.99;26.82;98884.75;5013106;28;20236;-71
2022/06/21 06:57:21;;;;;;;2.15;2.00;;;;;;;34.95;27.92;98886.69;5013258;28;20244;-74
2022/06/21 06:59:48;;;;;;;5.30;2.15;;;;;;;34.85;27.63;98880.97;5013365;28;20277;-73
2022/06/21 07:02:23;;;;;;;3.13;1.92;;;;;;;34.66;28.45;98886.56;5012291;28;20305;-70
2022/06/21 07:04:58;;;;;;;3.67;2.10;;;;;;;34.56;28.29;98884.41;5012524;28;20186;-75
2022/06/21 07:07:33;;;;;;;4.93;1.70;;;;;;;34.55;28.57;98882.84;5013565;28;20585;-76
2022/06/21 07:10:06;;;;;;;7.40;2.88;;;;;;;34.60;28.34;98882.53;5012173;28;20189;-73
2022/06/21 07:12:33;;;;;;;2.20;1.98;;;;;;;34.68;28.48;98881.47;5012452;28;20277;-71
2022/06/21 07:15:00;;;;;;;6.97;2.72;;;;;;;34.73;27.68;98878.41;5012457;28;20190;-86
2022/06/21 07:17:34;;;;;;;2.20;2.00;;;;;;;34.97;27.86;98878.03;5012219;28;20232;-81
2022/06/21 07:20:01;;;;;;;2.40;2.20;;;;;;;35.14;28.42;98874.72;5011582;28;20662;-83
2022/06/21 07:22:33;;;;;;;2.22;2.03;;;;;;;35.29;27.92;98868.28;5012743;28;20221;-85
2022/06/21 07:25:13;;;;;;;2.60;2.22;;;;;;;35.15;27.91;98868.06;5011808;28;20198;-75
2022/06/21 07:27:45;;;;;;;4.07;1.95;;;;;;;35.05;27.83;98871.44;5026310;28;20197;-73
2022/06/21 07:30:14;;;;;;;17.17;3.50;;;;;;;35.26;28.57;98875.31;5030741;28;20189;-71
2022/06/21 07:32:46;;;;;;;11.98;2.20;;;;;;;35.48;27.89;98863.41;5032227;28;20208;-73
2022/06/21 07:35:18;;;;;;;4.70;2.35;;;;;;;35.47;28.20;98859.06;5030410;28;20232;-76
2022/06/21 07:37:49;;;;;;;10.48;2.40;;;;;;;35.69;27.64;98860.13;5031917;28;20315;-71
2022/06/21 07:40:23;;;;;;;5.57;1.73;;;;;;;35.91;26.77;98857.25;5026286;28;20182;-73
2022/06/21 07:42:57;;;;;;;15.73;3.03;;;;;;;35.66;27.14;98858.09;5004785;28;20277;-75
2022/06/21 07:45:29;;;;;;;5.95;2.13;;;;;;;36.06;26.23;98864.53;4992112;28;20697;-73
2022/06/21 07:48:03;;;;;;;2.90;1.73;;;;;;;36.06;25.83;98858.19;4991430;28;20195;-74
2022/06/21 07:50:36;;;;;;;3.53;1.83;;;;;;;36.19;26.16;98857.56;4991938;28;20651;-74
2022/06/21 07:53:07;;;;;;;2.92;1.85;;;;;;;36.12;26.68;98863.00;4991408;28;20651;-73
2022/06/21 07:55:38;;;;;;;5.82;2.25;;;;;;;35.77;26.40;98861.81;4991657;28;20191;-76
2022/06/21 07:58:11;;;;;;;7.85;1.83;;;;;;;35.47;26.57;98864.56;4991092;28;20186;-71
2022/06/21 08:09:13;;;;;;;5.63;2.25;;;;;;;35.60;26.91;98873.44;4997581;28;20580;-72
2022/06/21 08:11:41;;;;;;;7.78;2.20;;;;;;;35.56;27.56;98867.06;5011443;28;20276;-70
2022/06/21 08:14:09;;;;;;;2.33;2.05;;;;;;;35.44;27.77;98864.53;5010952;28;20651;-71
2022/06/21 08:16:44;;;;;;;7.95;2.00;;;;;;;35.83;27.07;98866.63;5009516;28;20194;-72
2022/06/21 08:19:24;;;;;;;8.27;3.45;;;;;;;35.96;27.20;98867.97;5009360;28;20217;-71
2022/06/21 08:21:56;;;;;;;12.15;2.25;;;;;;;36.16;28.10;98863.84;5009127;28;20256;-71
2022/06/21 08:24:35;;;;;;;6.38;2.90;;;;;;;35.62;27.65;98871.09;5009639;28;20213;-71
2022/06/21 08:27:10;;;;;;;4.93;2.33;;;;;;;35.41;28.04;98874.38;5010228;28;20189;-73
2022/06/21 08:29:43;;;;;;;7.90;2.50;;;;;;;35.53;28.15;98873.34;5028334;28;20196;-71
2022/06/21 08:32:15;;;;;;;7.80;2.35;;;;;;;34.86;28.65;98871.56;5029591;28;20252;-75
2022/06/21 08:34:47;;;;;;;8.50;2.50;;;;;;;34.77;29.12;98873.72;5030905;28;20189;-75
2022/06/21 08:37:19;;;;;;;17.20;2.95;;;;;;;34.64;29.13;98870.38;5030574;28;20259;-74
2022/06/21 08:39:53;;;;;;;6.63;2.30;;;;;;;34.95;29.53;98872.88;5029799;28;20243;-75
2022/06/21 08:42:57;;;;;;;10.48;3.22;;;;;;;35.17;28.21;98872.03;5008329;28;20246;-73
2022/06/21 08:46:03;;;;;;;5.03;2.35;;;;;;;34.88;29.44;98869.22;4991079;28;20619;-74
2022/06/21 08:49:04;;;;;;;5.00;2.33;;;;;;;35.09;28.86;98875.06;4991701;28;20253;-75
2022/06/21 08:52:08;;;;;;;10.02;2.40;;;;;;;34.85;29.45;98870.75;4991582;28;20249;-76
2022/06/21 08:54:44;;;;;;;2.47;1.98;;;;;;;35.44;29.00;98864.53;4991321;28;20261;-78
2022/06/21 08:57:18;;;;;;;11.85;2.45;;;;;;;35.64;28.33;98866.00;4991653;28;20218;-74
2022/06/21 08:59:57;;;;;;;7.50;2.67;;;;;;;34.96;28.15;98873.69;4989782;28;20197;-73
2022/06/21 09:02:34;;;;;;;3.72;2.13;;;;;;;34.61;28.94;98867.53;4989807;28;20187;-74
2022/06/21 09:05:16;;;;;;;2.90;2.70;;;;;;;34.99;28.95;98861.91;4990229;28;20646;-74
2022/06/21 09:08:02;;;;;;;2.13;2.00;;;;;;;35.17;28.83;98855.47;4989808;28;20231;-75
2022/06/21 09:10:44;;;;;;;5.95;2.40;;;;;;;34.84;28.95;98862.84;5007033;28;20728;-73
2022/06/21 09:13:38;;;;;;;7.15;2.60;;;;;;;34.54;29.12;98850.91;5009982;28;20242;-75
2022/06/21 09:16:11;;;;;;;7.22;2.88;;;;;;;34.65;29.16;98849.88;5010208;28;20729;-69
2022/06/21 09:19:00;;;;;;;11.50;3.08;;;;;;;34.61;29.50;98851.00;5009619;28;20183;-73
2022/06/21 09:21:36;;;;;;;4.97;2.20;;;;;;;34.49;28.87;98848.44;5010873;28;20248;-74
2022/06/21 09:24:12;;;;;;;15.90;3.22;;;;;;;34.70;30.30;98851.56;5009583;28;20210;-77
2022/06/21 09:26:45;;;;;;;5.60;2.20;;;;;;;34.60;29.24;98849.41;5010760;28;20248;-76
2022/06/21 09:29:28;;;;;;;6.78;2.50;;;;;;;34.67;28.49;98842.06;5026081;28;20693;-76
2022/06/21 09:32:16;;;;;;;14.73;2.97;;;;;;;34.75;29.37;98837.44;5034012;28;20570;-74
2022/06/21 09:34:54;;;;;;;10.25;2.60;;;;;;;34.53;29.26;98830.78;5033743;28;20573;-74
2022/06/21 09:37:33;;;;;;;8.45;2.42;;;;;;;34.71;28.93;98820.03;5033283;28;20612;-75
2022/06/21 09:40:09;;;;;;;4.28;2.00;;;;;;;34.77;28.10;98808.28;5030686;28;20721;-74
2022/06/21 09:42:44;;;;;;;5.22;2.78;;;;;;;34.95;28.56;98809.38;5008640;28;20265;-75
2022/06/21 09:45:18;;;;;;;3.63;2.10;;;;;;;34.58;28.36;98816.66;4994744;28;20252;-74
2022/06/21 09:47:56;;;;;;;14.27;2.95;;;;;;;34.93;28.02;98821.94;5011484;28;20234;-74
2022/06/21 09:50:31;;;;;;;3.20;2.00;;;;;;;35.21;27.45;98808.53;5012641;28;20739;-73
2022/06/21 09:53:04;;;;;;;4.07;2.13;;;;;;;35.48;27.17;98810.13;5012788;28;20276;-74
2022/06/21 09:55:43;;;;;;;2.83;2.00;;;;;;;35.67;27.22;98807.16;4994448;28;20187;-71
2022/06/21 09:58:19;;;;;;;23.48;3.33;;;;;;;35.37;26.48;98800.91;5005031;28;20658;-71
2022/06/21 10:00:53;;;;;;;6.57;2.10;;;;;;;35.16;27.04;98801.41;5013412;28;20285;-71
2022/06/21 10:03:31;;;;;;;6.05;2.95;;;;;;;35.24;27.72;98791.22;5012312;28;20697;-71
2022/06/21 10:06:05;;;;;;;4.63;2.40;;;;;;;35.37;28.86;98798.13;5013518;28;20605;-71
2022/06/21 10:08:50;;;;;;;4.55;2.47;;;;;;;35.68;26.79;98786.66;5013585;28;20677;-73
2022/06/21 10:11:29;;;;;;;3.42;2.28;;;;;;;36.05;26.92;98793.00;5012241;28;20575;-72
2022/06/21 10:14:21;;;;;;;2.65;2.10;;;;;;;36.06;25.99;98791.81;5013790;28;20238;-72
2022/06/21 10:17:13;;;;;;;8.73;2.70;;;;;;;36.08;25.02;98790.25;5015574;28;20194;-72
2022/06/21 10:19:53;;;;;;;2.72;2.45;;;;;;;35.98;25.62;98776.34;4993900;28;20257;-72
2022/06/21 10:22:31;;;;;;;18.17;3.10;;;;;;;35.49;26.96;98773.81;4993994;28;20206;-74
2022/06/21 10:25:21;;;;;;;7.63;2.75;;;;;;;35.60;27.11;98773.94;4993613;28;20301;-73
2022/06/21 10:28:26;;;;;;;7.57;2.88;;;;;;;35.58;26.62;98765.22;4994024;28;20195;-72
2022/06/21 10:31:03;;;;;;;4.63;2.78;;;;;;;35.50;26.43;98763.53;4993371;28;20242;-70
2022/06/21 10:33:50;;;;;;;3.63;2.72;;;;;;;35.73;26.49;98758.69;4993261;28;20206;-73
2022/06/21 10:36:39;;;;;;;9.13;3.20;;;;;;;35.65;27.73;98748.72;4992580;28;20659;-72
2022/06/21 10:39:31;;;;;;;3.13;2.75;;;;;;;36.04;26.92;98744.38;4993136;28;20666;-72
2022/06/21 10:45:11;;;;;;;3.25;2.92;;;;;;;35.88;26.64;98760.44;4994365;28;20304;-70
2022/06/21 10:47:53;;;;;;;7.45;3.20;;;;;;;36.29;26.69;98756.50;4993915;28;20190;-73
2022/06/21 10:50:43;;;;;;;7.43;3.28;;;;;;;36.41;26.49;98775.53;4992200;28;20745;-71
2022/06/21 10:53:39;;;;;;;7.13;4.03;;;;;;;36.21;26.51;98777.72;4992591;28;20613;-72
2022/06/21 10:59:18;;;;;;;7.45;3.60;;;;;;;36.22;27.77;98759.19;4992634;28;20280;-71
2022/06/21 11:01:52;;;;;;;10.30;3.58;;;;;;;35.91;27.52;98756.91;4993084;28;20191;-72
2022/06/21 11:04:49;;;;;;;5.90;3.70;;;;;;;35.95;28.94;98754.97;4992104;28;20214;-73
2022/06/21 11:07:27;;;;;;;15.88;4.32;;;;;;;35.85;28.22;98758.44;4993920;28;20191;-70
2022/06/21 11:09:59;;;;;;;4.97;3.55;;;;;;;36.00;28.32;98757.38;5000360;28;20217;-71
2022/06/21 11:15:30;;;;;;;5.40;3.75;;;;;;;36.10;28.61;98760.25;5018387;28;20286;-73
2022/06/21 11:18:10;;;;;;;11.77;4.45;;;;;;;36.10;28.01;98749.16;5003098;28;20190;-71
2022/06/21 11:20:48;;;;;;;9.52;4.40;;;;;;;36.09;28.44;98752.34;5011496;28;20182;-71
2022/06/21 11:23:27;;;;;;;6.63;3.92;;;;;;;36.05;29.09;98759.81;5012919;28;20682;-69
2022/06/21 11:26:02;;;;;;;20.83;5.10;;;;;;;35.97;28.66;98758.94;5006635;28;20189;-71
2022/06/21 11:28:42;;;;;;;7.93;4.13;;;;;;;36.26;28.92;98751.72;5006158;28;20258;-70
2022/06/21 11:31:17;;;;;;;12.05;4.70;;;;;;;36.14;28.83;98760.28;5031383;28;20185;-71
2022/06/21 11:33:56;;;;;;;18.55;4.85;;;;;;;35.65;29.26;98748.72;5029588;28;20625;-68
2022/06/21 11:36:31;;;;;;;10.02;4.68;;;;;;;35.45;30.65;98744.53;5020527;28;20197;-72
2022/06/21 11:39:07;;;;;;;10.02;4.28;;;;;;;35.53;30.81;98729.63;5012176;28;20205;-72
2022/06/21 11:42:06;;;;;;;11.77;4.93;;;;;;;35.45;30.64;98752.84;4996570;28;20721;-70
2022/06/21 11:44:55;;;;;;;8.40;4.97;;;;;;;35.83;29.97;98745.00;4993007;28;20222;-70
2022/06/21 11:47:35;;;;;;;7.40;4.63;;;;;;;35.80;30.18;98728.38;4990615;28;20202;-72
2022/06/21 11:50:17;;;;;;;18.65;5.32;;;;;;;35.26;31.49;98722.59;4992020;28;20195;-71
2022/06/21 11:53:14;;;;;;;9.38;5.47;;;;;;;35.37;31.75;98731.81;5013267;28;20669;-70
2022/06/21 11:55:46;;;;;;;5.22;4.75;;;;;;;35.85;31.06;98725.25;5012153;28;20202;-73
2022/06/21 11:58:26;;;;;;;5.22;4.60;;;;;;;36.07;30.89;98727.03;5009883;28;20221;-71
2022/06/21 12:00:58;;;;;;;17.38;4.95;;;;;;;36.05;31.11;98729.41;5011263;28;20186;-70
2022/06/21 12:03:36;;;;;;;9.35;5.15;;;;;;;35.45;30.61;98725.22;5010534;28;20580;-72
2022/06/21 12:06:12;;;;;;;8.65;5.13;;;;;;;35.75;31.26;98731.47;5010107;28;20197;-71
2022/06/21 12:08:46;;;;;;;10.68;5.45;;;;;;;35.75;31.28;98720.41;5010793;28;20284;-71
2022/06/21 12:11:20;;;;;;;10.68;5.53;;;;;;;35.66;31.73;98717.13;5009645;28;20186;-72
2022/06/21 12:13:57;;;;;;;8.20;5.00;;;;;;;35.85;31.85;98719.72;5006727;28;20233;-70
2022/06/21 12:16:40;;;;;;;22.88;6.78;;;;;;;35.59;32.34;98717.84;4994358;28;20192;-71
2022/06/21 12:19:11;;;;;;;6.78;5.20;;;;;;;35.51;32.39;98715.38;5010064;28;20669;-70
2022/06/21 12:21:46;;;;;;;17.80;5.38;;;;;;;35.90;31.90;98711.88;5010251;28;20901;-75
2022/06/21 12:24:16;;;;;;;16.42;6.03;;;;;;;36.02;31.32;98719.09;5030367;28;20681;-72
2022/06/21 12:26:44;;;;;;;10.63;5.85;;;;;;;36.06;31.04;98714.38;5030276;28;20181;-71